Time;durP1;ratioP1;P1;durP2;ratioP2;P2;SDS_P1;SDS_P2;PMS_P1;PMS_P2;Temp;Humidity;BMP_temperature;BMP_pressure;BME280_temperature;BME280_humidity;BME280_pressure;Samples;Min_cycle;Max_cycle;Signal;HPM_P1;HPM_P2
2023/03/10 00:00:07;;;;;;;0.80;0.80;;;;;;;;;;5096361;28;20032;-82
2023/03/10 00:02:33;;;;;;;0.90;0.90;;;;;;;;;;5096154;28;20035;-83
2023/03/10 00:05:00;;;;;;;0.80;0.80;;;;;;;;;;5113038;28;20023;-82
2023/03/10 00:07:26;;;;;;;0.82;0.82;;;;;;;;;;5112995;28;20019;-82
2023/03/10 00:09:51;;;;;;;0.77;0.77;;;;;;;;;;5114221;28;20489;-83
2023/03/10 00:12:16;;;;;;;0.93;0.93;;;;;;;;;;5114210;28;20027;-82
2023/03/10 00:14:42;;;;;;;0.77;0.77;;;;;;;;;;5114120;28;20454;-82
2023/03/10 00:17:07;;;;;;;0.70;0.70;;;;;;;;;;5112875;28;20031;-83
2023/03/10 00:19:33;;;;;;;0.80;0.80;;;;;;;;;;5112875;28;20528;-83
2023/03/10 00:21:58;;;;;;;0.85;0.85;;;;;;;;;;5095553;28;20438;-83
2023/03/10 00:24:24;;;;;;;0.68;0.60;;;;;;;;;;5112549;28;20027;-83
2023/03/10 00:26:49;;;;;;;0.90;0.90;;;;;;;;;;5113774;28;20039;-83
2023/03/10 00:29:15;;;;;;;0.82;0.82;;;;;;;;;;5095476;28;20482;-83
2023/03/10 00:31:41;;;;;;;0.98;0.98;;;;;;;;;;5113561;28;20398;-83
2023/03/10 00:34:06;;;;;;;0.70;0.70;;;;;;;;;;5113971;28;20024;-84
2023/03/10 00:36:32;;;;;;;0.63;0.63;;;;;;;;;;5113583;28;20031;-83
2023/03/10 00:38:59;;;;;;;0.73;0.73;;;;;;;;;;5113612;28;20044;-83
2023/03/10 00:41:29;;;;;;;0.75;0.75;;;;;;;;;;5112887;28;20473;-83
2023/03/10 00:43:56;;;;;;;1.13;0.77;;;;;;;;;;5095456;28;20024;-82
2023/03/10 00:46:22;;;;;;;0.88;0.88;;;;;;;;;;5112294;28;20031;-83
2023/03/10 00:48:47;;;;;;;0.70;0.70;;;;;;;;;;5112450;28;20035;-81
2023/03/10 00:51:13;;;;;;;0.70;0.70;;;;;;;;;;5112208;28;20024;-83
2023/03/10 00:53:39;;;;;;;0.73;0.73;;;;;;;;;;5112331;28;20035;-83
2023/03/10 00:56:13;;;;;;;0.80;0.80;;;;;;;;;;5112242;28;20027;-82
2023/03/10 00:58:40;;;;;;;0.65;0.65;;;;;;;;;;5112529;28;20027;-83
2023/03/10 01:01:12;;;;;;;0.82;0.73;;;;;;;;;;5112019;28;20036;-82
2023/03/10 01:03:38;;;;;;;0.77;0.77;;;;;;;;;;5112213;28;20031;-84
2023/03/10 01:06:03;;;;;;;0.65;0.65;;;;;;;;;;5112123;28;20125;-83
2023/03/10 01:08:28;;;;;;;0.60;0.60;;;;;;;;;;5112091;28;20092;-83
2023/03/10 01:10:54;;;;;;;0.73;0.73;;;;;;;;;;5113269;28;20024;-83
2023/03/10 01:13:19;;;;;;;0.73;0.73;;;;;;;;;;5112072;28;20032;-83
2023/03/10 01:15:47;;;;;;;0.55;0.55;;;;;;;;;;5113438;28;20049;-83
2023/03/10 01:18:14;;;;;;;0.80;0.80;;;;;;;;;;5111973;28;20107;-82
2023/03/10 01:20:42;;;;;;;0.70;0.70;;;;;;;;;;5113298;28;20148;-82
2023/03/10 01:23:16;;;;;;;2.17;0.70;;;;;;;;;;5095193;28;20489;-82
2023/03/10 01:25:42;;;;;;;0.70;0.70;;;;;;;;;;5112190;28;20027;-82
2023/03/10 01:28:08;;;;;;;0.77;0.68;;;;;;;;;;5112099;28;20035;-82
2023/03/10 01:30:33;;;;;;;0.50;0.50;;;;;;;;;;5111905;28;20070;-81
2023/03/10 01:32:59;;;;;;;0.70;0.70;;;;;;;;;;5112011;28;20167;-82
2023/03/10 01:35:24;;;;;;;0.68;0.68;;;;;;;;;;5111981;28;20063;-82
2023/03/10 01:37:50;;;;;;;0.70;0.70;;;;;;;;;;5113197;28;20048;-83
2023/03/10 01:40:17;;;;;;;0.65;0.65;;;;;;;;;;5111970;28;20442;-82
2023/03/10 01:42:44;;;;;;;0.50;0.50;;;;;;;;;;5113171;28;20027;-82
2023/03/10 01:45:30;;;;;;;0.57;0.57;;;;;;;;;;5113346;28;20462;-83
2023/03/10 01:47:55;;;;;;;0.60;0.60;;;;;;;;;;5113039;28;20542;-83
2023/03/10 01:50:22;;;;;;;0.60;0.60;;;;;;;;;;5112935;28;20036;-85
2023/03/10 01:52:55;;;;;;;0.40;0.40;;;;;;;;;;5111982;28;20030;-83
2023/03/10 01:55:27;;;;;;;0.60;0.60;;;;;;;;;;5095276;28;20053;-82
2023/03/10 01:57:54;;;;;;;0.70;0.70;;;;;;;;;;5113306;28;20107;-83
2023/03/10 02:00:20;;;;;;;1.10;0.77;;;;;;;;;;5116683;28;20032;-83
2023/03/10 02:02:52;;;;;;;0.60;0.60;;;;;;;;;;5115390;28;20032;-83
2023/03/10 02:05:23;;;;;;;0.60;0.60;;;;;;;;;;5092359;28;20113;-84
2023/03/10 02:07:49;;;;;;;0.68;0.68;;;;;;;;;;5060929;28;20039;-83
2023/03/10 02:10:15;;;;;;;5.43;0.52;;;;;;;;;;5079240;28;20475;-81
2023/03/10 02:12:42;;;;;;;0.60;0.50;;;;;;;;;;5073836;28;20086;-82
2023/03/10 02:15:09;;;;;;;0.70;0.70;;;;;;;;;;5074459;28;20115;-81
2023/03/10 02:17:35;;;;;;;0.50;0.50;;;;;;;;;;5058154;28;20028;-82
2023/03/10 02:20:27;;;;;;;0.63;0.63;;;;;;;;;;5075395;28;20486;-83
2023/03/10 02:22:52;;;;;;;1.55;0.50;;;;;;;;;;5075101;28;20108;-82
2023/03/10 02:25:37;;;;;;;0.75;0.75;;;;;;;;;;5074323;28;20119;-83
2023/03/10 02:28:03;;;;;;;0.70;0.70;;;;;;;;;;5074109;28;20073;-83
2023/03/10 02:30:32;;;;;;;0.60;0.60;;;;;;;;;;5074567;28;20032;-82
2023/03/10 02:33:02;;;;;;;0.52;0.52;;;;;;;;;;5074104;28;20475;-82
2023/03/10 02:35:27;;;;;;;2.53;0.65;;;;;;;;;;5057036;28;20028;-82
2023/03/10 02:37:53;;;;;;;0.40;0.40;;;;;;;;;;5075122;28;20128;-82
2023/03/10 02:40:24;;;;;;;0.75;0.70;;;;;;;;;;5075107;28;20033;-82
2023/03/10 02:42:49;;;;;;;0.60;0.60;;;;;;;;;;5075010;28;20050;-82
2023/03/10 02:45:15;;;;;;;0.60;0.60;;;;;;;;;;5073644;28;20107;-81
2023/03/10 02:47:40;;;;;;;0.50;0.50;;;;;;;;;;5073717;28;20028;-83
2023/03/10 02:50:07;;;;;;;0.50;0.50;;;;;;;;;;5075324;28;20505;-81
2023/03/10 02:52:58;;;;;;;0.55;0.55;;;;;;;;;;5075193;28;20028;-81
2023/03/10 02:55:24;;;;;;;0.55;0.55;;;;;;;;;;5074033;28;20033;-83
2023/03/10 02:57:49;;;;;;;0.50;0.50;;;;;;;;;;5073763;28;20434;-83
2023/03/10 03:00:15;;;;;;;0.50;0.50;;;;;;;;;;5074476;28;20036;-83
2023/03/10 03:02:40;;;;;;;0.57;0.57;;;;;;;;;;5074643;28;20087;-83
2023/03/10 03:05:06;;;;;;;0.60;0.60;;;;;;;;;;5074729;28;20056;-84
2023/03/10 03:07:32;;;;;;;0.60;0.60;;;;;;;;;;5074477;28;20364;-83
2023/03/10 03:09:57;;;;;;;0.52;0.52;;;;;;;;;;5074221;28;20058;-82
2023/03/10 03:12:22;;;;;;;0.70;0.70;;;;;;;;;;5074309;28;20039;-83
2023/03/10 03:14:48;;;;;;;1.13;0.60;;;;;;;;;;5056198;28;20036;-82
2023/03/10 03:17:13;;;;;;;0.50;0.50;;;;;;;;;;5074186;28;20036;-82
2023/03/10 03:19:39;;;;;;;0.50;0.50;;;;;;;;;;5074248;28;20115;-83
2023/03/10 03:22:04;;;;;;;0.50;0.50;;;;;;;;;;5074058;28;20398;-82
2023/03/10 03:24:30;;;;;;;0.50;0.50;;;;;;;;;;5074044;28;20409;-82
2023/03/10 03:26:56;;;;;;;0.80;0.50;;;;;;;;;;5074341;28;20054;-82
2023/03/10 03:29:22;;;;;;;0.77;0.77;;;;;;;;;;5056480;28;20527;-83
2023/03/10 03:31:47;;;;;;;0.40;0.40;;;;;;;;;;5072564;28;20399;-81
2023/03/10 03:34:14;;;;;;;0.50;0.50;;;;;;;;;;5074781;28;20086;-82
2023/03/10 03:36:39;;;;;;;0.52;0.50;;;;;;;;;;5072785;28;20056;-82
2023/03/10 03:39:05;;;;;;;0.40;0.40;;;;;;;;;;5072459;28;20430;-82
2023/03/10 03:41:32;;;;;;;0.40;0.40;;;;;;;;;;5072676;28;20494;-82
2023/03/10 03:43:57;;;;;;;1.67;0.47;;;;;;;;;;5072617;28;20032;-82
2023/03/10 03:46:22;;;;;;;0.43;0.43;;;;;;;;;;5072464;28;20033;-82
2023/03/10 03:48:48;;;;;;;0.60;0.60;;;;;;;;;;5055689;28;20035;-82
2023/03/10 03:51:13;;;;;;;0.60;0.60;;;;;;;;;;5073999;28;20037;-83
2023/03/10 03:53:39;;;;;;;1.08;0.85;;;;;;;;;;5073438;28;20056;-82
2023/03/10 03:56:05;;;;;;;0.43;0.40;;;;;;;;;;5072396;28;20385;-82
2023/03/10 03:58:30;;;;;;;0.55;0.55;;;;;;;;;;5073719;28;20162;-81
2023/03/10 04:00:56;;;;;;;0.60;0.60;;;;;;;;;;5055516;28;20040;-81
2023/03/10 04:03:21;;;;;;;0.60;0.60;;;;;;;;;;5074337;28;20577;-82
2023/03/10 04:05:46;;;;;;;1.23;0.50;;;;;;;;;;5073322;28;20062;-81
2023/03/10 04:08:12;;;;;;;0.57;0.50;;;;;;;;;;5073805;28;20111;-82
2023/03/10 04:10:38;;;;;;;0.43;0.43;;;;;;;;;;5073312;28;20096;-82
2023/03/10 04:13:03;;;;;;;0.60;0.60;;;;;;;;;;5073217;28;20064;-82
2023/03/10 04:15:28;;;;;;;0.60;0.60;;;;;;;;;;5073457;28;20024;-82
2023/03/10 04:17:56;;;;;;;0.57;0.57;;;;;;;;;;5072255;28;20485;-81
2023/03/10 04:20:23;;;;;;;0.50;0.50;;;;;;;;;;5071592;28;20487;-82
2023/03/10 04:22:49;;;;;;;1.00;0.60;;;;;;;;;;5072265;28;20032;-82
2023/03/10 04:25:14;;;;;;;0.35;0.35;;;;;;;;;;5073120;28;20039;-82
2023/03/10 04:27:40;;;;;;;0.50;0.50;;;;;;;;;;5073247;28;20115;-82
2023/03/10 04:30:06;;;;;;;0.75;0.50;;;;;;;;;;5072131;28;20047;-82
2023/03/10 04:32:38;;;;;;;0.55;0.55;;;;;;;;;;5069568;28;20041;-82
2023/03/10 04:35:04;;;;;;;0.50;0.50;;;;;;;;;;5071640;28;20445;-83
2023/03/10 04:37:29;;;;;;;0.60;0.60;;;;;;;;;;5072738;28;20033;-83
2023/03/10 04:39:56;;;;;;;0.65;0.65;;;;;;;;;;5071801;28;20086;-84
2023/03/10 04:42:21;;;;;;;0.50;0.50;;;;;;;;;;5071733;28;20084;-83
2023/03/10 04:44:47;;;;;;;1.67;0.43;;;;;;;;;;5072225;28;20056;-83
2023/03/10 04:47:12;;;;;;;0.47;0.47;;;;;;;;;;5072856;28;20033;-82
2023/03/10 04:49:37;;;;;;;0.50;0.50;;;;;;;;;;5072809;28;20050;-82
2023/03/10 04:52:03;;;;;;;1.30;0.70;;;;;;;;;;5073120;28;20043;-83
2023/03/10 04:54:28;;;;;;;1.25;0.70;;;;;;;;;;5072891;28;20028;-84
2023/03/10 04:56:54;;;;;;;0.70;0.70;;;;;;;;;;5074045;28;20082;-86
2023/03/10 04:59:20;;;;;;;0.60;0.60;;;;;;;;;;5073413;28;20324;-86
2023/03/10 05:01:46;;;;;;;2.17;0.55;;;;;;;;;;5072823;28;20029;-85
2023/03/10 05:04:11;;;;;;;1.20;0.68;;;;;;;;;;5072474;28;20024;-86
2023/03/10 05:06:37;;;;;;;0.75;0.50;;;;;;;;;;5070702;28;20032;-86
2023/03/10 05:09:03;;;;;;;1.35;0.47;;;;;;;;;;5070719;28;20040;-86
2023/03/10 05:11:29;;;;;;;0.93;0.60;;;;;;;;;;5072316;28;20028;-87
2023/03/10 05:13:55;;;;;;;1.45;0.60;;;;;;;;;;5070813;28;20082;-83
2023/03/10 05:16:20;;;;;;;0.60;0.60;;;;;;;;;;5070759;28;20459;-83
2023/03/10 05:18:46;;;;;;;2.47;1.20;;;;;;;;;;5071142;28;20092;-82
2023/03/10 05:21:12;;;;;;;7.38;1.40;;;;;;;;;;5054549;28;20029;-83
2023/03/10 05:23:38;;;;;;;5.82;1.50;;;;;;;;;;5072219;28;20036;-82
2023/03/10 05:26:08;;;;;;;6.45;1.67;;;;;;;;;;5070744;28;20161;-82
2023/03/10 05:28:33;;;;;;;5.13;1.50;;;;;;;;;;5070864;28;20122;-83
2023/03/10 05:30:59;;;;;;;4.95;1.67;;;;;;;;;;5070661;28;20540;-82
2023/03/10 05:33:24;;;;;;;2.88;1.50;;;;;;;;;;5074253;28;20032;-83
2023/03/10 05:35:50;;;;;;;6.03;1.77;;;;;;;;;;5074305;28;20430;-83
2023/03/10 05:38:15;;;;;;;4.22;1.70;;;;;;;;;;5058787;28;20075;-83
2023/03/10 05:40:41;;;;;;;4.45;1.52;;;;;;;;;;5059074;28;20162;-83
2023/03/10 05:43:07;;;;;;;2.35;1.45;;;;;;;;;;5076383;28;20029;-83
2023/03/10 05:45:32;;;;;;;2.90;1.30;;;;;;;;;;5074734;28;20082;-83
2023/03/10 05:47:58;;;;;;;2.70;1.50;;;;;;;;;;5075750;28;20094;-84
2023/03/10 05:50:23;;;;;;;2.58;1.42;;;;;;;;;;5074587;28;20075;-83
2023/03/10 05:52:49;;;;;;;4.88;1.40;;;;;;;;;;5075148;28;20033;-84
2023/03/10 05:55:17;;;;;;;2.42;1.42;;;;;;;;;;5077641;28;20080;-82
2023/03/10 05:57:43;;;;;;;2.42;1.25;;;;;;;;;;5077217;28;20101;-84
2023/03/10 06:00:09;;;;;;;2.88;1.30;;;;;;;;;;5075953;28;20067;-85
2023/03/10 06:02:37;;;;;;;2.13;1.25;;;;;;;;;;5075103;28;20032;-84
2023/03/10 06:05:04;;;;;;;1.15;1.10;;;;;;;;;;5075344;28;20481;-82
2023/03/10 06:07:30;;;;;;;2.72;1.25;;;;;;;;;;5062156;28;20047;-79
2023/03/10 06:09:55;;;;;;;2.50;1.20;;;;;;;;;;5074990;28;20032;-83
2023/03/10 06:12:21;;;;;;;1.98;1.25;;;;;;;;;;5078596;28;20135;-82
2023/03/10 06:14:46;;;;;;;2.30;1.20;;;;;;;;;;5076267;28;20040;-83
2023/03/10 06:17:11;;;;;;;2.05;1.17;;;;;;;;;;5076440;28;20082;-82
2023/03/10 06:19:37;;;;;;;1.25;1.15;;;;;;;;;;5075141;28;20028;-82
2023/03/10 06:22:02;;;;;;;1.17;1.00;;;;;;;;;;5074557;28;20055;-82
2023/03/10 06:24:28;;;;;;;1.48;1.27;;;;;;;;;;5077503;28;20024;-82
2023/03/10 06:26:53;;;;;;;4.60;0.90;;;;;;;;;;5076233;28;20425;-82
2023/03/10 06:29:18;;;;;;;2.28;1.10;;;;;;;;;;5078065;28;20033;-82
2023/03/10 06:31:44;;;;;;;0.80;0.80;;;;;;;;;;5061215;28;20050;-82
2023/03/10 06:34:09;;;;;;;1.77;1.10;;;;;;;;;;5074947;28;20040;-82
2023/03/10 06:36:36;;;;;;;1.63;0.90;;;;;;;;;;5075235;28;20043;-82
2023/03/10 06:39:04;;;;;;;1.02;0.75;;;;;;;;;;5074748;28;20071;-84
2023/03/10 06:41:29;;;;;;;0.82;0.75;;;;;;;;;;5073277;28;20029;-84
2023/03/10 06:43:55;;;;;;;2.40;1.05;;;;;;;;;;5074570;28;20063;-84
2023/03/10 06:46:20;;;;;;;2.03;1.00;;;;;;;;;;5074501;28;20112;-85
2023/03/10 06:48:46;;;;;;;1.00;0.90;;;;;;;;;;5074154;28;20035;-84
2023/03/10 06:51:14;;;;;;;2.22;0.95;;;;;;;;;;5073065;28;20028;-83
2023/03/10 06:53:40;;;;;;;1.95;1.00;;;;;;;;;;5074263;28;20058;-83
2023/03/10 06:56:17;;;;;;;0.98;0.77;;;;;;;;;;5072584;28;20024;-84
2023/03/10 06:58:43;;;;;;;2.28;1.10;;;;;;;;;;5072951;28;20020;-84
2023/03/10 07:01:19;;;;;;;0.80;0.80;;;;;;;;;;5056280;28;20058;-85
2023/03/10 07:03:45;;;;;;;1.38;1.10;;;;;;;;;;5073981;28;20025;-83
2023/03/10 07:06:10;;;;;;;2.60;1.10;;;;;;;;;;5073715;28;20458;-81
2023/03/10 07:08:35;;;;;;;1.20;1.10;;;;;;;;;;5072755;28;20065;-83
2023/03/10 07:11:01;;;;;;;1.98;1.10;;;;;;;;;;5073793;28;20077;-83
2023/03/10 07:13:26;;;;;;;2.90;1.50;;;;;;;;;;5072260;28;20028;-86
2023/03/10 07:15:51;;;;;;;5.25;1.98;;;;;;;;;;5056299;28;20059;-87
2023/03/10 07:18:17;;;;;;;9.18;2.50;;;;;;;;;;5073871;28;20460;-87
2023/03/10 07:20:51;;;;;;;6.90;2.65;;;;;;;;;;5073799;28;20129;-87
2023/03/10 07:23:17;;;;;;;10.15;2.42;;;;;;;;;;5072468;28;20020;-88
2023/03/10 07:25:42;;;;;;;8.73;2.58;;;;;;;;;;5079410;28;20398;-85
2023/03/10 07:28:08;;;;;;;7.53;2.35;;;;;;;;;;5074218;28;20059;-87
2023/03/10 07:30:34;;;;;;;8.32;3.13;;;;;;;;;;5073544;28;20123;-88
2023/03/10 07:32:59;;;;;;;6.43;2.47;;;;;;;;;;5073716;28;20056;-87
2023/03/10 07:35:25;;;;;;;8.38;2.05;;;;;;;;;;5072207;28;20521;-85
2023/03/10 07:37:50;;;;;;;5.50;2.40;;;;;;;;;;5055235;28;20048;-86
2023/03/10 07:40:16;;;;;;;7.57;1.98;;;;;;;;;;5055455;28;20487;-86
2023/03/10 07:42:42;;;;;;;3.65;1.80;;;;;;;;;;5071646;28;20036;-85
2023/03/10 07:45:08;;;;;;;7.72;1.88;;;;;;;;;;5071425;28;20024;-84
2023/03/10 07:47:33;;;;;;;3.15;1.70;;;;;;;;;;5071081;28;20032;-83
2023/03/10 07:49:58;;;;;;;8.80;1.73;;;;;;;;;;5054378;28;20444;-88
2023/03/10 07:52:24;;;;;;;3.20;1.50;;;;;;;;;;5072114;28;20111;-83
2023/03/10 07:54:49;;;;;;;4.72;1.48;;;;;;;;;;5070399;28;20033;-83
2023/03/10 07:57:15;;;;;;;2.72;1.48;;;;;;;;;;5071044;28;20433;-81
2023/03/10 07:59:40;;;;;;;1.75;1.52;;;;;;;;;;5071115;28;20020;-82
2023/03/10 08:02:06;;;;;;;4.25;1.50;;;;;;;;;;5071017;28;20055;-80
2023/03/10 08:04:32;;;;;;;4.55;1.40;;;;;;;;;;5071087;28;20502;-80
2023/03/10 08:07:00;;;;;;;3.88;1.50;;;;;;;;;;5055903;28;20051;-80
2023/03/10 08:09:27;;;;;;;3.85;1.80;;;;;;;;;;5072357;28;20394;-82
2023/03/10 08:11:52;;;;;;;3.25;1.30;;;;;;;;;;5072309;28;20033;-81
2023/03/10 08:14:18;;;;;;;2.65;1.30;;;;;;;;;;5072306;28;20390;-80
2023/03/10 08:16:43;;;;;;;2.83;1.58;;;;;;;;;;5072264;28;20032;-81
2023/03/10 08:19:08;;;;;;;5.70;1.20;;;;;;;;;;5070852;28;20463;-81
2023/03/10 08:21:34;;;;;;;7.78;1.50;;;;;;;;;;5071088;28;20113;-82
2023/03/10 08:23:59;;;;;;;2.85;1.38;;;;;;;;;;5072125;28;20028;-81
2023/03/10 08:26:24;;;;;;;7.50;1.50;;;;;;;;;;5072820;28;20390;-84
2023/03/10 08:28:50;;;;;;;3.00;1.38;;;;;;;;;;5071232;28;20033;-84
2023/03/10 08:31:17;;;;;;;5.88;1.35;;;;;;;;;;5070863;28;20120;-82
2023/03/10 08:33:43;;;;;;;4.55;1.33;;;;;;;;;;5092067;28;20024;-81
2023/03/10 08:36:18;;;;;;;3.05;1.38;;;;;;;;;;5113018;28;20028;-80
2023/03/10 08:38:43;;;;;;;2.75;1.20;;;;;;;;;;5087555;28;20142;-84
2023/03/10 08:41:16;;;;;;;5.90;1.30;;;;;;;;;;5097161;28;20062;-87
2023/03/10 08:43:42;;;;;;;13.32;1.58;;;;;;;;;;5103087;28;20498;-83
2023/03/10 08:46:09;;;;;;;2.47;1.23;;;;;;;;;;5111178;28;20115;-82
2023/03/10 08:48:34;;;;;;;4.18;1.50;;;;;;;;;;5094881;28;20424;-84
2023/03/10 08:51:00;;;;;;;2.95;1.10;;;;;;;;;;5111306;28;20027;-83
2023/03/10 08:53:25;;;;;;;3.95;1.23;;;;;;;;;;5112461;28;20040;-84
2023/03/10 08:55:50;;;;;;;5.65;1.52;;;;;;;;;;5112566;28;20462;-78
2023/03/10 08:58:16;;;;;;;3.90;1.38;;;;;;;;;;5112248;28;20398;-81
2023/03/10 09:00:42;;;;;;;4.47;1.30;;;;;;;;;;5112240;28;20493;-80
2023/03/10 09:03:09;;;;;;;2.47;1.30;;;;;;;;;;5111187;28;20034;-81
2023/03/10 09:05:36;;;;;;;4.97;1.38;;;;;;;;;;5094306;28;20034;-82
2023/03/10 09:08:01;;;;;;;7.05;1.38;;;;;;;;;;5115339;28;20061;-82
2023/03/10 09:10:26;;;;;;;4.43;1.70;;;;;;;;;;5116002;28;20123;-81
2023/03/10 09:12:52;;;;;;;2.30;1.13;;;;;;;;;;5098587;28;20038;-80
2023/03/10 09:15:18;;;;;;;2.83;1.23;;;;;;;;;;5117018;28;20031;-88
2023/03/10 09:17:44;;;;;;;10.02;1.60;;;;;;;;;;5121227;28;20036;-80
2023/03/10 09:20:10;;;;;;;5.20;1.38;;;;;;;;;;5100959;28;20147;-82
2023/03/10 09:22:36;;;;;;;6.93;1.77;;;;;;;;;;5116502;28;20040;-79
2023/03/10 09:25:01;;;;;;;5.70;2.15;;;;;;;;;;5098939;28;20035;-78
2023/03/10 09:27:27;;;;;;;9.40;2.60;;;;;;;;;;5124286;28;20031;-78
2023/03/10 09:29:52;;;;;;;17.35;4.00;;;;;;;;;;5123642;28;20389;-78
2023/03/10 09:32:17;;;;;;;10.32;3.33;;;;;;;;;;5123027;28;20118;-81
2023/03/10 09:34:44;;;;;;;13.40;3.75;;;;;;;;;;5125018;28;20028;-81
2023/03/10 09:37:09;;;;;;;13.63;3.47;;;;;;;;;;5107193;28;20471;-81
2023/03/10 09:39:35;;;;;;;15.18;3.60;;;;;;;;;;5104308;28;20105;-81
2023/03/10 09:42:19;;;;;;;13.13;3.80;;;;;;;;;;5107635;28;20122;-80
2023/03/10 09:45:07;;;;;;;16.58;3.95;;;;;;;;;;5112623;28;20016;-80
2023/03/10 09:48:10;;;;;;;10.90;3.60;;;;;;;;;;5117369;28;20428;-82
2023/03/10 09:50:46;;;;;;;15.98;4.10;;;;;;;;;;5123804;28;20053;-82
2023/03/10 09:53:29;;;;;;;12.48;3.35;;;;;;;;;;5108708;28;20028;-82
2023/03/10 09:55:54;;;;;;;10.25;3.33;;;;;;;;;;5117513;28;20032;-82
2023/03/10 09:58:19;;;;;;;10.80;3.42;;;;;;;;;;5085582;28;20111;-81
2023/03/10 10:00:45;;;;;;;9.05;2.83;;;;;;;;;;5094868;28;20020;-81
2023/03/10 10:03:20;;;;;;;5.90;2.70;;;;;;;;;;5077912;28;20038;-81
2023/03/10 10:05:47;;;;;;;7.75;2.92;;;;;;;;;;5094567;28;20054;-83
2023/03/10 10:08:25;;;;;;;7.60;2.70;;;;;;;;;;5094524;28;20020;-82
2023/03/10 10:10:55;;;;;;;12.20;3.20;;;;;;;;;;5094208;28;20462;-81
2023/03/10 10:13:23;;;;;;;11.10;3.30;;;;;;;;;;5094342;28;20042;-79
2023/03/10 10:16:00;;;;;;;10.25;2.78;;;;;;;;;;5094549;28;20474;-80
2023/03/10 10:18:42;;;;;;;13.25;2.95;;;;;;;;;;5076474;28;20055;-81
2023/03/10 10:21:21;;;;;;;8.68;2.70;;;;;;;;;;5094135;28;20016;-83
2023/03/10 10:23:53;;;;;;;9.48;3.08;;;;;;;;;;5094571;28;20128;-81
2023/03/10 10:26:25;;;;;;;12.52;3.20;;;;;;;;;;5093913;28;20502;-83
2023/03/10 10:28:58;;;;;;;10.98;3.15;;;;;;;;;;5077702;28;20370;-83
2023/03/10 10:31:28;;;;;;;5.50;2.45;;;;;;;;;;5094080;28;20481;-83
2023/03/10 10:33:59;;;;;;;9.25;2.80;;;;;;;;;;5104187;28;20123;-85
2023/03/10 10:36:31;;;;;;;9.77;2.55;;;;;;;;;;5115589;28;20114;-87
2023/03/10 10:38:57;;;;;;;12.98;3.17;;;;;;;;;;5114215;28;20063;-84
2023/03/10 10:41:26;;;;;;;10.77;2.53;;;;;;;;;;5115118;28;20024;-84
2023/03/10 10:43:54;;;;;;;5.97;1.90;;;;;;;;;;5095272;28;20038;-84
2023/03/10 10:46:27;;;;;;;6.63;2.38;;;;;;;;;;5094570;28;20423;-83
2023/03/10 10:49:17;;;;;;;5.25;2.30;;;;;;;;;;5094436;28;20024;-84
2023/03/10 10:51:42;;;;;;;7.38;2.22;;;;;;;;;;5093714;28;20492;-84
2023/03/10 10:54:20;;;;;;;5.72;2.10;;;;;;;;;;5076533;28;20028;-84
2023/03/10 10:56:52;;;;;;;4.57;1.95;;;;;;;;;;5095001;28;20027;-81
2023/03/10 10:59:19;;;;;;;5.32;2.10;;;;;;;;;;5093771;28;20024;-85
2023/03/10 11:01:54;;;;;;;9.60;2.15;;;;;;;;;;5094675;28;20024;-86
2023/03/10 11:04:20;;;;;;;5.30;2.13;;;;;;;;;;5093411;28;20020;-81
2023/03/10 11:06:46;;;;;;;3.65;1.67;;;;;;;;;;5093452;28;20118;-82
2023/03/10 11:09:17;;;;;;;3.88;1.60;;;;;;;;;;5096110;28;20106;-82
2023/03/10 11:11:57;;;;;;;2.80;1.67;;;;;;;;;;5096885;28;20024;-81
2023/03/10 11:14:28;;;;;;;3.38;1.60;;;;;;;;;;5095847;28;20378;-83
2023/03/10 11:17:03;;;;;;;2.25;1.65;;;;;;;;;;5095258;28;20058;-83
2023/03/10 11:19:31;;;;;;;1.45;1.35;;;;;;;;;;5078921;28;20032;-83
2023/03/10 11:22:06;;;;;;;1.58;1.33;;;;;;;;;;5094818;28;20035;-84
2023/03/10 11:24:58;;;;;;;1.95;1.48;;;;;;;;;;5094358;28;20012;-85
2023/03/10 11:27:40;;;;;;;1.50;1.40;;;;;;;;;;5075929;28;20127;-84
2023/03/10 11:30:30;;;;;;;1.30;1.20;;;;;;;;;;5092829;28;20106;-83
2023/03/10 11:33:09;;;;;;;1.10;1.10;;;;;;;;;;5093836;28;20112;-82
2023/03/10 11:35:44;;;;;;;1.00;1.00;;;;;;;;;;5094362;28;20039;-83
2023/03/10 11:38:23;;;;;;;1.25;1.13;;;;;;;;;;5076438;28;20185;-84
2023/03/10 11:40:51;;;;;;;2.50;1.10;;;;;;;;;;5093404;28;20039;-82
2023/03/10 11:43:23;;;;;;;1.88;1.17;;;;;;;;;;5092560;28;20411;-84
2023/03/10 11:45:53;;;;;;;1.40;1.30;;;;;;;;;;5093816;28;20016;-84
2023/03/10 11:48:43;;;;;;;1.83;1.38;;;;;;;;;;5059967;28;20032;-83
2023/03/10 11:51:33;;;;;;;1.70;1.50;;;;;;;;;;5075767;28;20066;-84
2023/03/10 11:54:00;;;;;;;2.22;1.80;;;;;;;;;;5094347;28;20073;-83
2023/03/10 11:56:26;;;;;;;3.30;2.03;;;;;;;;;;5094082;28;20358;-81
2023/03/10 11:59:12;;;;;;;3.42;2.30;;;;;;;;;;5077148;28;20372;-84
2023/03/10 12:01:39;;;;;;;3.78;2.92;;;;;;;;;;5092654;28;20020;-84
2023/03/10 12:04:11;;;;;;;5.00;2.90;;;;;;;;;;5075199;28;20043;-80
2023/03/10 12:06:36;;;;;;;8.13;3.60;;;;;;;;;;5093668;28;20055;-84
2023/03/10 12:09:02;;;;;;;7.38;3.22;;;;;;;;;;5093420;28;20529;-84
2023/03/10 12:11:28;;;;;;;7.53;3.65;;;;;;;;;;5092056;28;20020;-83
2023/03/10 12:13:59;;;;;;;12.07;4.07;;;;;;;;;;5075378;28;20405;-85
2023/03/10 12:16:31;;;;;;;13.20;4.32;;;;;;;;;;5075272;28;20024;-84
2023/03/10 12:18:56;;;;;;;9.82;4.22;;;;;;;;;;5092192;28;20051;-85
2023/03/10 12:21:27;;;;;;;12.18;3.97;;;;;;;;;;5092716;28;20084;-87
2023/03/10 12:23:55;;;;;;;17.42;4.30;;;;;;;;;;5092415;28;20024;-87
2023/03/10 12:26:56;;;;;;;11.15;3.90;;;;;;;;;;5095031;28;20031;-86
2023/03/10 12:29:34;;;;;;;9.15;3.85;;;;;;;;;;5094503;28;20039;-85
2023/03/10 12:32:00;;;;;;;8.90;3.42;;;;;;;;;;5095761;28;20038;-88
2023/03/10 12:34:28;;;;;;;7.38;3.80;;;;;;;;;;5095869;28;20102;-86
2023/03/10 12:37:09;;;;;;;7.65;3.38;;;;;;;;;;5096452;28;20159;-86
2023/03/10 12:39:40;;;;;;;7.18;3.15;;;;;;;;;;5095187;28;20525;-88
2023/03/10 12:42:29;;;;;;;7.95;3.40;;;;;;;;;;5094169;28;20101;-87
2023/03/10 12:45:08;;;;;;;6.03;2.80;;;;;;;;;;5095883;28;20414;-87
2023/03/10 12:48:09;;;;;;;9.52;3.20;;;;;;;;;;5095562;28;20103;-87
2023/03/10 12:50:48;;;;;;;5.03;2.92;;;;;;;;;;5059796;28;20036;-88
2023/03/10 12:53:23;;;;;;;6.28;3.22;;;;;;;;;;5093840;28;20031;-88
2023/03/10 12:56:18;;;;;;;5.70;3.13;;;;;;;;;;5094295;28;20036;-89
2023/03/10 12:59:04;;;;;;;4.53;2.80;;;;;;;;;;5097451;28;20024;-86
2023/03/10 13:01:45;;;;;;;5.93;2.65;;;;;;;;;;5097002;28;20046;-85
2023/03/10 13:04:16;;;;;;;3.80;2.47;;;;;;;;;;5098410;28;20039;-85
2023/03/10 13:06:53;;;;;;;6.43;2.70;;;;;;;;;;5097460;28;20103;-84
2023/03/10 13:09:31;;;;;;;3.00;2.10;;;;;;;;;;5099897;28;20020;-82
2023/03/10 13:12:14;;;;;;;3.85;2.15;;;;;;;;;;5100085;28;20113;-83
2023/03/10 13:14:42;;;;;;;5.95;2.20;;;;;;;;;;5097786;28;20055;-82
2023/03/10 13:17:32;;;;;;;2.38;1.70;;;;;;;;;;5097963;28;20045;-84
2023/03/10 13:20:11;;;;;;;3.92;1.85;;;;;;;;;;5114450;28;20016;-86
2023/03/10 13:22:36;;;;;;;3.78;1.73;;;;;;;;;;5096730;28;20051;-83
2023/03/10 13:25:35;;;;;;;2.40;1.60;;;;;;;;;;5095219;28;20028;-85
2023/03/10 13:28:18;;;;;;;4.22;1.90;;;;;;;;;;5112182;28;20024;-87
2023/03/10 13:30:49;;;;;;;2.80;1.55;;;;;;;;;;5096453;28;20032;-83
2023/03/10 13:33:23;;;;;;;2.83;1.55;;;;;;;;;;5096964;28;20104;-85
2023/03/10 13:35:49;;;;;;;2.65;1.70;;;;;;;;;;5097916;28;20008;-87
2023/03/10 13:38:31;;;;;;;3.05;1.60;;;;;;;;;;5096944;28;20032;-84
2023/03/10 13:41:09;;;;;;;1.85;1.60;;;;;;;;;;5081412;28;20090;-85
2023/03/10 13:43:43;;;;;;;3.60;1.90;;;;;;;;;;5112885;28;20040;-83
2023/03/10 13:46:15;;;;;;;2.10;1.60;;;;;;;;;;5111526;28;20024;-83
2023/03/10 13:49:02;;;;;;;4.65;1.50;;;;;;;;;;5113540;28;20028;-85
2023/03/10 13:51:35;;;;;;;3.05;1.60;;;;;;;;;;5095019;28;20024;-83
2023/03/10 13:54:39;;;;;;;2.22;1.60;;;;;;;;;;5099085;28;20089;-84
2023/03/10 13:57:30;;;;;;;2.05;1.73;;;;;;;;;;5085885;28;20040;-84
2023/03/10 13:59:57;;;;;;;1.67;1.30;;;;;;;;;;5101002;28;20016;-83
2023/03/10 14:02:30;;;;;;;1.83;1.60;;;;;;;;;;5099720;28;20046;-84
2023/03/10 14:05:07;;;;;;;1.65;1.50;;;;;;;;;;5118095;28;20027;-85
2023/03/10 14:07:38;;;;;;;2.05;1.52;;;;;;;;;;5115439;28;20086;-84
2023/03/10 14:10:03;;;;;;;1.60;1.50;;;;;;;;;;5097046;28;20071;-87
2023/03/10 14:12:47;;;;;;;1.65;1.52;;;;;;;;;;5114199;28;20028;-86
2023/03/10 14:15:45;;;;;;;4.27;1.40;;;;;;;;;;5099712;28;20035;-84
2023/03/10 14:18:26;;;;;;;1.42;1.33;;;;;;;;;;5105220;28;20046;-86
2023/03/10 14:20:55;;;;;;;1.75;1.40;;;;;;;;;;5101622;28;20024;-86
2023/03/10 14:23:27;;;;;;;2.58;1.55;;;;;;;;;;5114860;28;20162;-85
2023/03/10 14:25:55;;;;;;;1.50;1.30;;;;;;;;;;5076490;28;20047;-85
2023/03/10 14:28:25;;;;;;;1.50;1.40;;;;;;;;;;5103330;28;20047;-84
2023/03/10 14:30:51;;;;;;;1.48;1.38;;;;;;;;;;5097391;28;20028;-85
2023/03/10 14:33:16;;;;;;;4.07;1.58;;;;;;;;;;5097755;28;20027;-85
2023/03/10 14:35:44;;;;;;;1.80;1.60;;;;;;;;;;5097888;28;20020;-86
2023/03/10 14:38:10;;;;;;;1.40;1.30;;;;;;;;;;5099515;28;20491;-86
2023/03/10 14:40:41;;;;;;;1.60;1.50;;;;;;;;;;5083358;28;20086;-85
2023/03/10 14:43:14;;;;;;;2.05;1.38;;;;;;;;;;5098903;28;20081;-85
2023/03/10 14:45:40;;;;;;;1.42;1.33;;;;;;;;;;5096372;28;20019;-86
2023/03/10 14:48:17;;;;;;;1.40;1.30;;;;;;;;;;5084368;28;20101;-86
2023/03/10 14:50:43;;;;;;;1.23;1.20;;;;;;;;;;5100476;28;20042;-84
2023/03/10 14:53:14;;;;;;;1.48;1.35;;;;;;;;;;5107733;28;20035;-86
2023/03/10 14:55:40;;;;;;;1.70;1.60;;;;;;;;;;5088754;28;20024;-84